sensor_id;sensor_type;location;lat;lon;timestamp;temperature;humidity
50067;DHT22;35952;52.524;13.340;2023-03-14T00:00:54;12.50;99.90
50067;DHT22;35952;52.524;13.340;2023-03-14T00:03:19;12.50;99.90
50067;DHT22;35952;52.524;13.340;2023-03-14T00:05:45;12.50;99.90
50067;DHT22;35952;52.524;13.340;2023-03-14T00:08:11;12.60;99.90
50067;DHT22;35952;52.524;13.340;2023-03-14T00:10:37;12.60;99.90
50067;DHT22;35952;52.524;13.340;2023-03-14T00:13:03;12.50;99.90
50067;DHT22;35952;52.524;13.340;2023-03-14T00:15:28;12.40;99.90
50067;DHT22;35952;52.524;13.340;2023-03-14T00:17:54;12.40;99.90
50067;DHT22;35952;52.524;13.340;2023-03-14T00:20:19;12.40;99.90
50067;DHT22;35952;52.524;13.340;2023-03-14T00:22:45;12.30;99.90
50067;DHT22;35952;52.524;13.340;2023-03-14T00:25:12;12.20;99.90
50067;DHT22;35952;52.524;13.340;2023-03-14T00:27:38;12.20;99.90
50067;DHT22;35952;52.524;13.340;2023-03-14T00:30:05;12.10;99.90
50067;DHT22;35952;52.524;13.340;2023-03-14T00:32:31;12.10;99.90
50067;DHT22;35952;52.524;13.340;2023-03-14T00:34:56;12.10;99.90
50067;DHT22;35952;52.524;13.340;2023-03-14T00:37:22;12.00;99.90
50067;DHT22;35952;52.524;13.340;2023-03-14T00:39:47;12.00;99.90
50067;DHT22;35952;52.524;13.340;2023-03-14T00:42:13;12.10;99.90
50067;DHT22;35952;52.524;13.340;2023-03-14T00:44:39;12.00;99.90
50067;DHT22;35952;52.524;13.340;2023-03-14T00:47:04;12.20;99.90
50067;DHT22;35952;52.524;13.340;2023-03-14T00:49:30;12.10;99.90
50067;DHT22;35952;52.524;13.340;2023-03-14T00:51:55;12.00;99.90
50067;DHT22;35952;52.524;13.340;2023-03-14T00:54:21;12.10;99.90
50067;DHT22;35952;52.524;13.340;2023-03-14T00:56:47;12.20;99.90
50067;DHT22;35952;52.524;13.340;2023-03-14T00:59:12;12.00;99.90
50067;DHT22;35952;52.524;13.340;2023-03-14T01:01:39;12.10;99.90
50067;DHT22;35952;52.524;13.340;2023-03-14T01:04:05;12.00;99.90
50067;DHT22;35952;52.524;13.340;2023-03-14T01:06:31;11.90;99.90
50067;DHT22;35952;52.524;13.340;2023-03-14T01:08:57;11.90;99.90
50067;DHT22;35952;52.524;13.340;2023-03-14T01:11:28;11.90;99.90
50067;DHT22;35952;52.524;13.340;2023-03-14T01:13:54;11.80;99.90
50067;DHT22;35952;52.524;13.340;2023-03-14T01:16:22;11.90;99.90
50067;DHT22;35952;52.524;13.340;2023-03-14T01:18:48;12.00;99.90
50067;DHT22;35952;52.524;13.340;2023-03-14T01:21:19;12.00;99.90
50067;DHT22;35952;52.524;13.340;2023-03-14T01:23:46;12.00;99.90
50067;DHT22;35952;52.524;13.340;2023-03-14T01:26:15;12.00;99.90
50067;DHT22;35952;52.524;13.340;2023-03-14T01:28:40;12.10;99.90
50067;DHT22;35952;52.524;13.340;2023-03-14T01:31:08;12.00;99.90
50067;DHT22;35952;52.524;13.340;2023-03-14T01:33:33;11.90;99.90
50067;DHT22;35952;52.524;13.340;2023-03-14T01:35:59;11.90;99.90
50067;DHT22;35952;52.524;13.340;2023-03-14T01:38:28;11.80;99.90
50067;DHT22;35952;52.524;13.340;2023-03-14T01:40:53;11.90;99.90
50067;DHT22;35952;52.524;13.340;2023-03-14T01:43:19;11.80;99.90
50067;DHT22;35952;52.524;13.340;2023-03-14T01:48:36;11.90;99.90
50067;DHT22;35952;52.524;13.340;2023-03-14T01:51:06;12.00;99.90
50067;DHT22;35952;52.524;13.340;2023-03-14T01:53:33;11.90;99.90
50067;DHT22;35952;52.524;13.340;2023-03-14T01:55:59;11.90;99.90
50067;DHT22;35952;52.524;13.340;2023-03-14T01:58:27;11.80;99.90
50067;DHT22;35952;52.524;13.340;2023-03-14T02:00:54;11.80;99.90
50067;DHT22;35952;52.524;13.340;2023-03-14T02:03:21;11.80;99.90
50067;DHT22;35952;52.524;13.340;2023-03-14T02:05:48;11.70;99.90
50067;DHT22;35952;52.524;13.340;2023-03-14T02:08:17;11.80;99.90
50067;DHT22;35952;52.524;13.340;2023-03-14T02:10:45;11.80;99.90
50067;DHT22;35952;52.524;13.340;2023-03-14T02:13:13;11.80;99.90
50067;DHT22;35952;52.524;13.340;2023-03-14T02:15:39;11.70;99.90
50067;DHT22;35952;52.524;13.340;2023-03-14T02:18:05;11.70;99.90
50067;DHT22;35952;52.524;13.340;2023-03-14T02:26:06;11.70;99.90
50067;DHT22;35952;52.524;13.340;2023-03-14T02:28:33;11.80;99.90
50067;DHT22;35952;52.524;13.340;2023-03-14T02:30:59;11.70;99.90
50067;DHT22;35952;52.524;13.340;2023-03-14T02:33:24;11.80;99.90
50067;DHT22;35952;52.524;13.340;2023-03-14T02:35:53;11.80;99.90
50067;DHT22;35952;52.524;13.340;2023-03-14T02:38:22;11.70;99.90
50067;DHT22;35952;52.524;13.340;2023-03-14T02:40:50;11.60;99.90
50067;DHT22;35952;52.524;13.340;2023-03-14T02:43:16;11.80;99.90
50067;DHT22;35952;52.524;13.340;2023-03-14T02:45:46;11.80;99.90
50067;DHT22;35952;52.524;13.340;2023-03-14T02:48:19;11.70;99.90
50067;DHT22;35952;52.524;13.340;2023-03-14T02:50:47;11.70;99.90
50067;DHT22;35952;52.524;13.340;2023-03-14T02:53:17;11.60;99.90
50067;DHT22;35952;52.524;13.340;2023-03-14T02:55:52;11.50;99.90
50067;DHT22;35952;52.524;13.340;2023-03-14T02:58:19;11.60;99.90
50067;DHT22;35952;52.524;13.340;2023-03-14T03:00:45;11.40;99.90
50067;DHT22;35952;52.524;13.340;2023-03-14T03:03:11;11.40;99.90
50067;DHT22;35952;52.524;13.340;2023-03-14T03:05:36;11.40;99.90
50067;DHT22;35952;52.524;13.340;2023-03-14T03:08:02;11.40;99.90
50067;DHT22;35952;52.524;13.340;2023-03-14T03:10:28;11.50;99.90
50067;DHT22;35952;52.524;13.340;2023-03-14T03:12:54;11.40;99.90
50067;DHT22;35952;52.524;13.340;2023-03-14T03:15:20;11.30;99.90
50067;DHT22;35952;52.524;13.340;2023-03-14T03:17:45;11.20;99.90
50067;DHT22;35952;52.524;13.340;2023-03-14T03:20:11;11.30;99.90
50067;DHT22;35952;52.524;13.340;2023-03-14T03:22:38;11.50;99.90
50067;DHT22;35952;52.524;13.340;2023-03-14T03:25:05;11.50;99.90
50067;DHT22;35952;52.524;13.340;2023-03-14T03:27:33;11.40;99.90
50067;DHT22;35952;52.524;13.340;2023-03-14T03:29:59;11.50;99.90
50067;DHT22;35952;52.524;13.340;2023-03-14T03:32:25;11.50;99.90
50067;DHT22;35952;52.524;13.340;2023-03-14T03:34:50;11.50;99.90
50067;DHT22;35952;52.524;13.340;2023-03-14T03:37:16;11.50;99.90
50067;DHT22;35952;52.524;13.340;2023-03-14T03:39:42;11.50;99.90
50067;DHT22;35952;52.524;13.340;2023-03-14T03:42:07;11.30;99.90
50067;DHT22;35952;52.524;13.340;2023-03-14T03:44:33;11.30;99.90
50067;DHT22;35952;52.524;13.340;2023-03-14T03:46:59;11.40;99.90
50067;DHT22;35952;52.524;13.340;2023-03-14T03:49:27;11.40;99.90
50067;DHT22;35952;52.524;13.340;2023-03-14T03:51:53;11.40;99.90
50067;DHT22;35952;52.524;13.340;2023-03-14T03:54:18;11.40;99.90
50067;DHT22;35952;52.524;13.340;2023-03-14T03:56:44;11.40;99.90
50067;DHT22;35952;52.524;13.340;2023-03-14T03:59:09;11.40;99.90
50067;DHT22;35952;52.524;13.340;2023-03-14T04:01:35;11.30;99.90
50067;DHT22;35952;52.524;13.340;2023-03-14T04:04:01;11.20;99.90
50067;DHT22;35952;52.524;13.340;2023-03-14T04:06:26;11.40;99.90
50067;DHT22;35952;52.524;13.340;2023-03-14T04:08:53;11.40;99.90
50067;DHT22;35952;52.524;13.340;2023-03-14T04:11:19;11.40;99.90
50067;DHT22;35952;52.524;13.340;2023-03-14T04:13:44;11.30;99.90
50067;DHT22;35952;52.524;13.340;2023-03-14T04:16:19;11.40;99.90
50067;DHT22;35952;52.524;13.340;2023-03-14T04:18:45;11.30;99.90
50067;DHT22;35952;52.524;13.340;2023-03-14T04:21:10;11.40;99.90
50067;DHT22;35952;52.524;13.340;2023-03-14T04:23:36;11.40;99.90
50067;DHT22;35952;52.524;13.340;2023-03-14T04:26:02;11.30;99.90
50067;DHT22;35952;52.524;13.340;2023-03-14T04:28:28;11.40;99.90
50067;DHT22;35952;52.524;13.340;2023-03-14T04:30:54;11.40;99.90
50067;DHT22;35952;52.524;13.340;2023-03-14T04:33:19;11.40;99.90
50067;DHT22;35952;52.524;13.340;2023-03-14T04:35:45;11.30;99.90
50067;DHT22;35952;52.524;13.340;2023-03-14T04:38:12;11.20;99.90
50067;DHT22;35952;52.524;13.340;2023-03-14T04:40:39;11.20;99.90
50067;DHT22;35952;52.524;13.340;2023-03-14T04:43:04;11.30;99.90
50067;DHT22;35952;52.524;13.340;2023-03-14T04:45:30;11.30;99.90
50067;DHT22;35952;52.524;13.340;2023-03-14T04:47:55;11.30;99.90
50067;DHT22;35952;52.524;13.340;2023-03-14T04:50:21;11.30;99.90
50067;DHT22;35952;52.524;13.340;2023-03-14T04:52:47;11.30;99.90
50067;DHT22;35952;52.524;13.340;2023-03-14T04:55:12;11.30;99.90
50067;DHT22;35952;52.524;13.340;2023-03-14T04:57:38;11.30;99.90
50067;DHT22;35952;52.524;13.340;2023-03-14T05:00:04;11.30;99.90
50067;DHT22;35952;52.524;13.340;2023-03-14T05:02:33;11.40;99.90
50067;DHT22;35952;52.524;13.340;2023-03-14T05:04:59;11.40;99.90
50067;DHT22;35952;52.524;13.340;2023-03-14T05:07:24;11.50;99.90
50067;DHT22;35952;52.524;13.340;2023-03-14T05:09:50;11.40;99.90
50067;DHT22;35952;52.524;13.340;2023-03-14T05:12:15;11.30;99.90
50067;DHT22;35952;52.524;13.340;2023-03-14T05:14:41;11.20;99.90
50067;DHT22;35952;52.524;13.340;2023-03-14T05:17:06;11.30;99.90
50067;DHT22;35952;52.524;13.340;2023-03-14T05:19:32;11.30;99.90
50067;DHT22;35952;52.524;13.340;2023-03-14T05:21:57;11.40;99.90
50067;DHT22;35952;52.524;13.340;2023-03-14T05:24:23;11.20;99.90
50067;DHT22;35952;52.524;13.340;2023-03-14T05:26:48;11.20;99.90
50067;DHT22;35952;52.524;13.340;2023-03-14T05:29:14;11.20;99.90
50067;DHT22;35952;52.524;13.340;2023-03-14T05:31:40;11.40;99.90
50067;DHT22;35952;52.524;13.340;2023-03-14T05:34:05;11.50;99.90
50067;DHT22;35952;52.524;13.340;2023-03-14T05:36:31;11.50;99.90
50067;DHT22;35952;52.524;13.340;2023-03-14T05:38:56;11.40;99.90
50067;DHT22;35952;52.524;13.340;2023-03-14T05:41:22;11.40;99.90
50067;DHT22;35952;52.524;13.340;2023-03-14T05:43:47;11.30;99.90
50067;DHT22;35952;52.524;13.340;2023-03-14T05:46:13;11.40;99.90
50067;DHT22;35952;52.524;13.340;2023-03-14T05:48:38;11.40;99.90
50067;DHT22;35952;52.524;13.340;2023-03-14T05:51:04;11.40;99.90
50067;DHT22;35952;52.524;13.340;2023-03-14T05:53:30;11.40;99.90
50067;DHT22;35952;52.524;13.340;2023-03-14T05:55:56;11.40;99.90
50067;DHT22;35952;52.524;13.340;2023-03-14T05:58:22;11.50;99.90
50067;DHT22;35952;52.524;13.340;2023-03-14T06:00:47;11.40;99.90
50067;DHT22;35952;52.524;13.340;2023-03-14T06:03:13;11.40;99.90
50067;DHT22;35952;52.524;13.340;2023-03-14T06:05:39;11.40;99.90
50067;DHT22;35952;52.524;13.340;2023-03-14T06:08:04;11.40;99.90
50067;DHT22;35952;52.524;13.340;2023-03-14T06:10:30;11.30;99.90
50067;DHT22;35952;52.524;13.340;2023-03-14T06:12:55;11.40;99.90
50067;DHT22;35952;52.524;13.340;2023-03-14T06:15:21;11.40;99.90
50067;DHT22;35952;52.524;13.340;2023-03-14T06:17:46;11.50;99.90
50067;DHT22;35952;52.524;13.340;2023-03-14T06:20:12;11.40;99.90
50067;DHT22;35952;52.524;13.340;2023-03-14T06:22:37;11.50;99.90
50067;DHT22;35952;52.524;13.340;2023-03-14T06:25:05;11.60;99.90
50067;DHT22;35952;52.524;13.340;2023-03-14T06:27:30;11.60;99.90
50067;DHT22;35952;52.524;13.340;2023-03-14T06:29:56;11.60;99.90
50067;DHT22;35952;52.524;13.340;2023-03-14T06:32:21;11.70;99.90
50067;DHT22;35952;52.524;13.340;2023-03-14T06:34:47;11.70;99.90
50067;DHT22;35952;52.524;13.340;2023-03-14T06:37:12;11.80;99.90
50067;DHT22;35952;52.524;13.340;2023-03-14T06:39:38;11.90;99.90
50067;DHT22;35952;52.524;13.340;2023-03-14T06:42:07;11.90;99.90
50067;DHT22;35952;52.524;13.340;2023-03-14T06:44:36;11.90;99.90
50067;DHT22;35952;52.524;13.340;2023-03-14T06:47:02;11.90;99.90
50067;DHT22;35952;52.524;13.340;2023-03-14T06:49:27;12.00;99.90
50067;DHT22;35952;52.524;13.340;2023-03-14T06:51:53;12.00;99.90
50067;DHT22;35952;52.524;13.340;2023-03-14T06:54:19;12.10;99.90
50067;DHT22;35952;52.524;13.340;2023-03-14T06:56:44;12.20;99.90
50067;DHT22;35952;52.524;13.340;2023-03-14T06:59:10;12.40;99.90
50067;DHT22;35952;52.524;13.340;2023-03-14T07:01:35;12.40;99.90
50067;DHT22;35952;52.524;13.340;2023-03-14T07:04:01;12.40;99.90
50067;DHT22;35952;52.524;13.340;2023-03-14T07:06:30;12.50;99.90
50067;DHT22;35952;52.524;13.340;2023-03-14T07:08:56;12.60;99.90
50067;DHT22;35952;52.524;13.340;2023-03-14T07:11:22;12.60;99.90
50067;DHT22;35952;52.524;13.340;2023-03-14T07:13:47;12.70;99.90
50067;DHT22;35952;52.524;13.340;2023-03-14T07:16:13;12.60;99.90
50067;DHT22;35952;52.524;13.340;2023-03-14T07:18:39;12.30;99.90
50067;DHT22;35952;52.524;13.340;2023-03-14T07:21:05;12.30;99.90
50067;DHT22;35952;52.524;13.340;2023-03-14T07:23:31;12.30;99.90
50067;DHT22;35952;52.524;13.340;2023-03-14T07:25:57;12.50;99.90
50067;DHT22;35952;52.524;13.340;2023-03-14T07:28:22;12.40;99.90
50067;DHT22;35952;52.524;13.340;2023-03-14T07:30:48;12.30;99.90
50067;DHT22;35952;52.524;13.340;2023-03-14T07:33:14;12.30;99.90
50067;DHT22;35952;52.524;13.340;2023-03-14T07:35:40;12.50;99.90
50067;DHT22;35952;52.524;13.340;2023-03-14T07:38:05;12.70;99.90
50067;DHT22;35952;52.524;13.340;2023-03-14T07:40:33;12.60;99.90
50067;DHT22;35952;52.524;13.340;2023-03-14T07:42:59;12.70;99.90
50067;DHT22;35952;52.524;13.340;2023-03-14T07:45:24;12.60;99.90
50067;DHT22;35952;52.524;13.340;2023-03-14T07:47:50;12.80;99.90
50067;DHT22;35952;52.524;13.340;2023-03-14T07:50:16;12.90;99.90
50067;DHT22;35952;52.524;13.340;2023-03-14T07:52:42;13.20;99.90
50067;DHT22;35952;52.524;13.340;2023-03-14T07:55:07;13.60;99.90
50067;DHT22;35952;52.524;13.340;2023-03-14T07:57:33;13.60;99.90
50067;DHT22;35952;52.524;13.340;2023-03-14T07:59:59;14.40;99.90
50067;DHT22;35952;52.524;13.340;2023-03-14T08:02:24;15.00;99.90
50067;DHT22;35952;52.524;13.340;2023-03-14T08:04:50;14.90;99.90
50067;DHT22;35952;52.524;13.340;2023-03-14T08:07:16;14.70;99.90
50067;DHT22;35952;52.524;13.340;2023-03-14T08:09:42;14.70;99.90
50067;DHT22;35952;52.524;13.340;2023-03-14T08:12:07;14.60;99.90
50067;DHT22;35952;52.524;13.340;2023-03-14T08:14:33;14.40;99.90
50067;DHT22;35952;52.524;13.340;2023-03-14T08:16:59;14.30;99.90
50067;DHT22;35952;52.524;13.340;2023-03-14T08:19:25;14.20;99.90
50067;DHT22;35952;52.524;13.340;2023-03-14T08:21:50;13.90;99.90
50067;DHT22;35952;52.524;13.340;2023-03-14T08:24:16;13.80;99.90
50067;DHT22;35952;52.524;13.340;2023-03-14T08:26:42;13.80;99.90
50067;DHT22;35952;52.524;13.340;2023-03-14T08:29:07;13.80;99.90
50067;DHT22;35952;52.524;13.340;2023-03-14T08:31:34;13.70;99.90
50067;DHT22;35952;52.524;13.340;2023-03-14T08:34:00;13.60;99.90
50067;DHT22;35952;52.524;13.340;2023-03-14T08:36:27;13.50;99.90
50067;DHT22;35952;52.524;13.340;2023-03-14T08:38:53;13.50;99.90
50067;DHT22;35952;52.524;13.340;2023-03-14T08:41:19;13.40;99.90
50067;DHT22;35952;52.524;13.340;2023-03-14T08:43:45;13.30;99.90
50067;DHT22;35952;52.524;13.340;2023-03-14T08:46:10;13.30;99.90
50067;DHT22;35952;52.524;13.340;2023-03-14T08:48:36;13.40;99.90
50067;DHT22;35952;52.524;13.340;2023-03-14T08:51:09;13.50;99.90
50067;DHT22;35952;52.524;13.340;2023-03-14T08:53:39;13.30;99.90
50067;DHT22;35952;52.524;13.340;2023-03-14T08:56:05;13.40;99.90
50067;DHT22;35952;52.524;13.340;2023-03-14T08:58:32;13.30;99.90
50067;DHT22;35952;52.524;13.340;2023-03-14T09:00:57;13.30;99.90
50067;DHT22;35952;52.524;13.340;2023-03-14T09:03:24;13.20;99.90
50067;DHT22;35952;52.524;13.340;2023-03-14T09:05:51;13.30;99.90
50067;DHT22;35952;52.524;13.340;2023-03-14T09:08:17;13.30;99.90
50067;DHT22;35952;52.524;13.340;2023-03-14T09:10:42;13.40;99.90
50067;DHT22;35952;52.524;13.340;2023-03-14T09:13:08;13.50;99.90
50067;DHT22;35952;52.524;13.340;2023-03-14T09:15:33;13.70;99.90
50067;DHT22;35952;52.524;13.340;2023-03-14T09:17:59;14.00;99.90
50067;DHT22;35952;52.524;13.340;2023-03-14T09:20:25;14.40;99.90
50067;DHT22;35952;52.524;13.340;2023-03-14T09:22:50;14.30;99.90
50067;DHT22;35952;52.524;13.340;2023-03-14T09:25:16;14.00;99.90
50067;DHT22;35952;52.524;13.340;2023-03-14T09:27:41;14.00;99.90
50067;DHT22;35952;52.524;13.340;2023-03-14T09:30:08;14.10;99.90
50067;DHT22;35952;52.524;13.340;2023-03-14T09:32:34;14.00;99.90
50067;DHT22;35952;52.524;13.340;2023-03-14T09:34:59;14.00;99.90
50067;DHT22;35952;52.524;13.340;2023-03-14T09:37:28;14.20;99.90
50067;DHT22;35952;52.524;13.340;2023-03-14T09:39:54;14.40;99.90
50067;DHT22;35952;52.524;13.340;2023-03-14T09:42:23;15.00;99.90
50067;DHT22;35952;52.524;13.340;2023-03-14T09:44:54;15.20;99.90
50067;DHT22;35952;52.524;13.340;2023-03-14T09:47:22;15.10;99.90
50067;DHT22;35952;52.524;13.340;2023-03-14T09:49:49;15.00;99.90
50067;DHT22;35952;52.524;13.340;2023-03-14T09:52:17;15.10;99.90
50067;DHT22;35952;52.524;13.340;2023-03-14T09:57:16;14.90;99.90
50067;DHT22;35952;52.524;13.340;2023-03-14T09:59:45;14.50;99.90
50067;DHT22;35952;52.524;13.340;2023-03-14T10:02:35;14.40;99.90
50067;DHT22;35952;52.524;13.340;2023-03-14T10:05:00;14.30;99.90
50067;DHT22;35952;52.524;13.340;2023-03-14T10:07:30;14.10;99.90
50067;DHT22;35952;52.524;13.340;2023-03-14T10:09:57;13.80;99.90
50067;DHT22;35952;52.524;13.340;2023-03-14T10:12:33;13.90;99.90
50067;DHT22;35952;52.524;13.340;2023-03-14T10:15:06;14.00;99.90
50067;DHT22;35952;52.524;13.340;2023-03-14T10:17:49;14.00;99.90
50067;DHT22;35952;52.524;13.340;2023-03-14T10:20:31;13.90;99.90
50067;DHT22;35952;52.524;13.340;2023-03-14T10:23:00;14.20;99.90
50067;DHT22;35952;52.524;13.340;2023-03-14T10:25:29;14.20;99.90
50067;DHT22;35952;52.524;13.340;2023-03-14T10:27:55;14.40;99.90
50067;DHT22;35952;52.524;13.340;2023-03-14T10:30:44;14.40;99.90
50067;DHT22;35952;52.524;13.340;2023-03-14T10:35:44;14.20;99.90
50067;DHT22;35952;52.524;13.340;2023-03-14T10:38:15;14.10;99.90
50067;DHT22;35952;52.524;13.340;2023-03-14T10:40:47;13.90;99.90
50067;DHT22;35952;52.524;13.340;2023-03-14T10:43:31;13.90;99.90
50067;DHT22;35952;52.524;13.340;2023-03-14T10:46:11;14.10;99.90
50067;DHT22;35952;52.524;13.340;2023-03-14T10:48:38;14.20;99.90
50067;DHT22;35952;52.524;13.340;2023-03-14T10:53:47;14.20;99.90
50067;DHT22;35952;52.524;13.340;2023-03-14T10:56:14;14.10;99.90
50067;DHT22;35952;52.524;13.340;2023-03-14T10:58:42;14.10;99.90
50067;DHT22;35952;52.524;13.340;2023-03-14T11:04:44;14.20;99.90
50067;DHT22;35952;52.524;13.340;2023-03-14T11:07:19;14.10;99.90
50067;DHT22;35952;52.524;13.340;2023-03-14T11:15:35;14.00;99.90
50067;DHT22;35952;52.524;13.340;2023-03-14T11:26:37;13.90;99.90
50067;DHT22;35952;52.524;13.340;2023-03-14T11:32:02;14.20;99.90
50067;DHT22;35952;52.524;13.340;2023-03-14T11:37:34;14.10;99.90
50067;DHT22;35952;52.524;13.340;2023-03-14T11:40:18;14.20;99.90
50067;DHT22;35952;52.524;13.340;2023-03-14T11:43:11;14.20;99.90
50067;DHT22;35952;52.524;13.340;2023-03-14T11:45:36;14.00;99.90
50067;DHT22;35952;52.524;13.340;2023-03-14T11:48:20;14.20;99.90
50067;DHT22;35952;52.524;13.340;2023-03-14T11:50:52;14.20;99.90
50067;DHT22;35952;52.524;13.340;2023-03-14T11:53:39;14.20;99.90
50067;DHT22;35952;52.524;13.340;2023-03-14T11:56:33;14.20;99.90
50067;DHT22;35952;52.524;13.340;2023-03-14T11:59:17;14.30;99.90
50067;DHT22;35952;52.524;13.340;2023-03-14T12:01:57;14.30;99.90
50067;DHT22;35952;52.524;13.340;2023-03-14T12:04:30;14.30;99.90
50067;DHT22;35952;52.524;13.340;2023-03-14T12:07:19;14.30;99.90
50067;DHT22;35952;52.524;13.340;2023-03-14T12:09:47;14.60;99.90
50067;DHT22;35952;52.524;13.340;2023-03-14T12:12:22;14.60;99.90
50067;DHT22;35952;52.524;13.340;2023-03-14T12:15:00;14.60;99.90
50067;DHT22;35952;52.524;13.340;2023-03-14T12:17:40;15.00;99.90
50067;DHT22;35952;52.524;13.340;2023-03-14T12:20:19;14.90;99.90
50067;DHT22;35952;52.524;13.340;2023-03-14T12:22:53;14.80;99.90
50067;DHT22;35952;52.524;13.340;2023-03-14T12:25:20;14.60;99.90
50067;DHT22;35952;52.524;13.340;2023-03-14T12:30:38;14.70;99.90
50067;DHT22;35952;52.524;13.340;2023-03-14T12:35:57;15.20;99.90
50067;DHT22;35952;52.524;13.340;2023-03-14T12:41:12;15.20;99.90
50067;DHT22;35952;52.524;13.340;2023-03-14T12:43:39;15.40;99.90
50067;DHT22;35952;52.524;13.340;2023-03-14T12:48:45;15.40;99.90
50067;DHT22;35952;52.524;13.340;2023-03-14T12:51:17;15.30;99.90
50067;DHT22;35952;52.524;13.340;2023-03-14T12:54:00;15.30;99.90
50067;DHT22;35952;52.524;13.340;2023-03-14T12:56:54;15.30;99.90
50067;DHT22;35952;52.524;13.340;2023-03-14T12:59:33;15.30;99.90
50067;DHT22;35952;52.524;13.340;2023-03-14T13:04:45;14.80;99.90
50067;DHT22;35952;52.524;13.340;2023-03-14T13:07:28;14.50;99.90
50067;DHT22;35952;52.524;13.340;2023-03-14T13:15:27;13.80;99.90
50067;DHT22;35952;52.524;13.340;2023-03-14T13:17:56;13.80;99.90
50067;DHT22;35952;52.524;13.340;2023-03-14T13:20:37;13.70;99.90
50067;DHT22;35952;52.524;13.340;2023-03-14T13:23:03;13.70;99.90
50067;DHT22;35952;52.524;13.340;2023-03-14T13:25:33;13.70;99.90
50067;DHT22;35952;52.524;13.340;2023-03-14T13:28:01;13.50;99.90
50067;DHT22;35952;52.524;13.340;2023-03-14T13:30:50;13.90;99.90
50067;DHT22;35952;52.524;13.340;2023-03-14T13:33:19;14.70;99.90
50067;DHT22;35952;52.524;13.340;2023-03-14T13:35:47;17.00;99.90
50067;DHT22;35952;52.524;13.340;2023-03-14T13:38:22;19.20;99.90
50067;DHT22;35952;52.524;13.340;2023-03-14T13:40:49;23.00;95.40
50067;DHT22;35952;52.524;13.340;2023-03-14T13:43:27;22.90;93.70
50067;DHT22;35952;52.524;13.340;2023-03-14T13:45:56;26.40;67.90
50067;DHT22;35952;52.524;13.340;2023-03-14T13:48:25;26.00;60.40
50067;DHT22;35952;52.524;13.340;2023-03-14T13:50:58;22.10;69.90
50067;DHT22;35952;52.524;13.340;2023-03-14T13:53:26;21.90;82.50
50067;DHT22;35952;52.524;13.340;2023-03-14T13:55:52;24.50;74.40
50067;DHT22;35952;52.524;13.340;2023-03-14T13:58:27;26.90;60.70
50067;DHT22;35952;52.524;13.340;2023-03-14T14:00:57;26.30;58.40
50067;DHT22;35952;52.524;13.340;2023-03-14T14:03:23;24.70;57.50
50067;DHT22;35952;52.524;13.340;2023-03-14T14:05:49;22.70;63.30
50067;DHT22;35952;52.524;13.340;2023-03-14T14:08:18;21.20;68.90
50067;DHT22;35952;52.524;13.340;2023-03-14T14:10:47;20.40;76.10
50067;DHT22;35952;52.524;13.340;2023-03-14T14:13:18;18.80;89.40
50067;DHT22;35952;52.524;13.340;2023-03-14T14:15:48;20.10;82.20
50067;DHT22;35952;52.524;13.340;2023-03-14T14:18:17;19.60;81.40
50067;DHT22;35952;52.524;13.340;2023-03-14T14:20:52;19.70;80.70
50067;DHT22;35952;52.524;13.340;2023-03-14T14:23:30;17.40;94.30
50067;DHT22;35952;52.524;13.340;2023-03-14T14:25:57;17.00;99.90
50067;DHT22;35952;52.524;13.340;2023-03-14T14:33:44;15.00;99.90
50067;DHT22;35952;52.524;13.340;2023-03-14T14:36:21;14.60;99.90
50067;DHT22;35952;52.524;13.340;2023-03-14T14:38:52;14.90;99.90
50067;DHT22;35952;52.524;13.340;2023-03-14T14:41:19;15.10;99.90
50067;DHT22;35952;52.524;13.340;2023-03-14T14:43:45;14.80;99.90
50067;DHT22;35952;52.524;13.340;2023-03-14T14:46:16;15.00;99.90
50067;DHT22;35952;52.524;13.340;2023-03-14T14:48:49;14.40;99.90
50067;DHT22;35952;52.524;13.340;2023-03-14T14:51:30;14.30;99.90
50067;DHT22;35952;52.524;13.340;2023-03-14T14:54:17;14.30;99.90
50067;DHT22;35952;52.524;13.340;2023-03-14T14:56:51;14.40;99.90
50067;DHT22;35952;52.524;13.340;2023-03-14T14:59:29;14.50;99.90
50067;DHT22;35952;52.524;13.340;2023-03-14T15:02:37;14.40;99.90
50067;DHT22;35952;52.524;13.340;2023-03-14T15:05:11;14.50;99.90
50067;DHT22;35952;52.524;13.340;2023-03-14T15:07:40;14.50;99.90
50067;DHT22;35952;52.524;13.340;2023-03-14T15:10:09;14.40;99.90
50067;DHT22;35952;52.524;13.340;2023-03-14T15:12:38;14.30;99.90
50067;DHT22;35952;52.524;13.340;2023-03-14T15:15:04;14.30;99.90
50067;DHT22;35952;52.524;13.340;2023-03-14T15:17:31;14.20;99.90
50067;DHT22;35952;52.524;13.340;2023-03-14T15:19:59;13.50;99.90
50067;DHT22;35952;52.524;13.340;2023-03-14T15:22:25;12.00;99.90
50067;DHT22;35952;52.524;13.340;2023-03-14T15:24:50;10.80;99.90
50067;DHT22;35952;52.524;13.340;2023-03-14T15:27:17;9.80;99.90
50067;DHT22;35952;52.524;13.340;2023-03-14T15:29:43;8.90;99.90
50067;DHT22;35952;52.524;13.340;2023-03-14T15:32:14;8.30;99.90
50067;DHT22;35952;52.524;13.340;2023-03-14T15:34:41;7.80;99.90
50067;DHT22;35952;52.524;13.340;2023-03-14T15:37:15;7.40;99.90
50067;DHT22;35952;52.524;13.340;2023-03-14T15:39:42;7.20;99.90
50067;DHT22;35952;52.524;13.340;2023-03-14T15:42:08;6.90;99.90
50067;DHT22;35952;52.524;13.340;2023-03-14T15:44:34;6.80;99.90
50067;DHT22;35952;52.524;13.340;2023-03-14T15:47:00;6.70;99.90
50067;DHT22;35952;52.524;13.340;2023-03-14T15:49:26;6.40;99.90
50067;DHT22;35952;52.524;13.340;2023-03-14T15:51:51;6.20;99.90
50067;DHT22;35952;52.524;13.340;2023-03-14T15:54:20;6.10;99.90
50067;DHT22;35952;52.524;13.340;2023-03-14T15:56:45;5.80;99.90
50067;DHT22;35952;52.524;13.340;2023-03-14T15:59:11;5.80;99.90
50067;DHT22;35952;52.524;13.340;2023-03-14T16:01:37;5.70;99.90
50067;DHT22;35952;52.524;13.340;2023-03-14T16:04:04;5.70;99.90
50067;DHT22;35952;52.524;13.340;2023-03-14T16:06:29;5.60;99.90
50067;DHT22;35952;52.524;13.340;2023-03-14T16:08:56;5.30;99.90
50067;DHT22;35952;52.524;13.340;2023-03-14T16:11:22;4.90;99.90
50067;DHT22;35952;52.524;13.340;2023-03-14T16:13:50;4.70;99.90
50067;DHT22;35952;52.524;13.340;2023-03-14T16:16:16;4.60;99.90
50067;DHT22;35952;52.524;13.340;2023-03-14T16:18:42;4.50;99.90
50067;DHT22;35952;52.524;13.340;2023-03-14T16:21:14;4.20;99.90
50067;DHT22;35952;52.524;13.340;2023-03-14T16:23:44;4.10;99.90
50067;DHT22;35952;52.524;13.340;2023-03-14T16:26:16;3.90;99.90
50067;DHT22;35952;52.524;13.340;2023-03-14T16:28:45;3.80;99.90